sensor_id;sensor_type;location;lat;lon;timestamp;pressure;altitude;pressure_sealevel;temperature;humidity
42705;BME280;28342;42.594;23.414;2022-09-21T03:26:41;94641.31;;;8.37;75.01
42705;BME280;28342;42.594;23.414;2022-09-21T03:29:27;94642.38;;;8.36;75.05
42705;BME280;28342;42.594;23.414;2022-09-21T03:32:20;94643.47;;;8.35;75.29
42705;BME280;28342;42.594;23.414;2022-09-21T03:34:45;94608.63;;;8.14;75.55
42705;BME280;28342;42.594;23.414;2022-09-21T03:37:31;94649.31;;;8.32;75.25
42705;BME280;28342;42.594;23.414;2022-09-21T03:40:16;94655.09;;;8.34;74.97
42705;BME280;28342;42.594;23.414;2022-09-21T03:43:04;94653.94;;;8.21;75.46
42705;BME280;28342;42.594;23.414;2022-09-21T03:45:50;94633.81;;;8.06;75.16
42705;BME280;28342;42.594;23.414;2022-09-21T03:48:19;94643.91;;;8.04;75.51
42705;BME280;28342;42.594;23.414;2022-09-21T03:50:48;94643.69;;;8.01;75.09
42705;BME280;28342;42.594;23.414;2022-09-21T03:53:15;94646.19;;;7.92;75.29
42705;BME280;28342;42.594;23.414;2022-09-21T03:56:00;94655.84;;;7.83;75.99
42705;BME280;28342;42.594;23.414;2022-09-21T03:58:57;94663.88;;;7.73;76.30
42705;BME280;28342;42.594;23.414;2022-09-21T04:02:05;94658.59;;;7.54;77.14
42705;BME280;28342;42.594;23.414;2022-09-21T04:04:59;94659.88;;;7.57;77.17
42705;BME280;28342;42.594;23.414;2022-09-21T04:07:46;94663.72;;;7.64;77.17
42705;BME280;28342;42.594;23.414;2022-09-21T04:10:20;94635.75;;;7.44;77.07
42705;BME280;28342;42.594;23.414;2022-09-21T04:12:46;94664.25;;;7.66;76.90
42705;BME280;28342;42.594;23.414;2022-09-21T04:15:13;94639.53;;;7.38;77.54
42705;BME280;28342;42.594;23.414;2022-09-21T04:18:01;94663.88;;;7.54;77.77
42705;BME280;28342;42.594;23.414;2022-09-21T04:20:35;94656.75;;;7.55;77.41
42705;BME280;28342;42.594;23.414;2022-09-21T04:23:22;94669.66;;;7.56;76.59
42705;BME280;28342;42.594;23.414;2022-09-21T04:26:19;94674.84;;;7.42;77.40
42705;BME280;28342;42.594;23.414;2022-09-21T04:29:32;94671.91;;;7.44;78.16
42705;BME280;28342;42.594;23.414;2022-09-21T04:32:24;94653.91;;;7.27;78.15
42705;BME280;28342;42.594;23.414;2022-09-21T04:34:50;94670.69;;;7.36;78.96
42705;BME280;28342;42.594;23.414;2022-09-21T04:37:35;94648.19;;;7.20;79.48
42705;BME280;28342;42.594;23.414;2022-09-21T04:40:03;94682.81;;;7.37;79.60
42705;BME280;28342;42.594;23.414;2022-09-21T04:42:31;94652.63;;;7.25;79.06
42705;BME280;28342;42.594;23.414;2022-09-21T04:45:01;94662.72;;;7.41;78.85
42705;BME280;28342;42.594;23.414;2022-09-21T04:47:31;94680.03;;;7.47;79.37
42705;BME280;28342;42.594;23.414;2022-09-21T04:50:28;94690.56;;;7.53;79.57
42705;BME280;28342;42.594;23.414;2022-09-21T04:52:54;94664.38;;;7.32;79.98
42705;BME280;28342;42.594;23.414;2022-09-21T04:55:24;94684.88;;;7.16;81.77
42705;BME280;28342;42.594;23.414;2022-09-21T04:57:51;94680.22;;;7.32;81.75
42705;BME280;28342;42.594;23.414;2022-09-21T05:00:18;94656.66;;;7.17;81.70
42705;BME280;28342;42.594;23.414;2022-09-21T05:03:14;94675.50;;;7.29;81.62
42705;BME280;28342;42.594;23.414;2022-09-21T05:05:54;94656.34;;;7.24;81.56
42705;BME280;28342;42.594;23.414;2022-09-21T05:08:39;94650.78;;;7.25;81.67
42705;BME280;28342;42.594;23.414;2022-09-21T05:11:25;94673.78;;;7.43;81.06
42705;BME280;28342;42.594;23.414;2022-09-21T05:13:50;94660.16;;;7.36;80.16
42705;BME280;28342;42.594;23.414;2022-09-21T05:16:17;94674.66;;;7.58;80.35
42705;BME280;28342;42.594;23.414;2022-09-21T05:18:43;94634.97;;;7.44;80.03
42705;BME280;28342;42.594;23.414;2022-09-21T05:21:10;94679.81;;;7.68;79.40
42705;BME280;28342;42.594;23.414;2022-09-21T05:23:35;94669.94;;;7.55;80.52
42705;BME280;28342;42.594;23.414;2022-09-21T05:26:01;94663.03;;;7.59;81.55
42705;BME280;28342;42.594;23.414;2022-09-21T05:28:28;94650.81;;;7.63;81.10
42705;BME280;28342;42.594;23.414;2022-09-21T05:30:58;94685.81;;;7.92;80.93
42705;BME280;28342;42.594;23.414;2022-09-21T05:33:28;94672.97;;;7.86;81.52
42705;BME280;28342;42.594;23.414;2022-09-21T05:38:41;94644.91;;;7.90;80.70
42705;BME280;28342;42.594;23.414;2022-09-21T05:41:07;94664.25;;;8.04;80.88
42705;BME280;28342;42.594;23.414;2022-09-21T05:43:34;94641.84;;;8.01;80.48
42705;BME280;28342;42.594;23.414;2022-09-21T05:46:05;94650.13;;;8.14;80.14
42705;BME280;28342;42.594;23.414;2022-09-21T05:48:37;94678.94;;;8.29;80.29
42705;BME280;28342;42.594;23.414;2022-09-21T05:54:03;94654.66;;;8.27;80.81
42705;BME280;28342;42.594;23.414;2022-09-21T06:05:20;94668.06;;;8.82;78.29
42705;BME280;28342;42.594;23.414;2022-09-21T06:07:46;94679.44;;;8.96;78.53
42705;BME280;28342;42.594;23.414;2022-09-21T06:10:13;94660.25;;;8.90;78.92
42705;BME280;28342;42.594;23.414;2022-09-21T06:12:40;94682.19;;;9.18;78.25
42705;BME280;28342;42.594;23.414;2022-09-21T06:15:11;94675.28;;;9.22;77.84
42705;BME280;28342;42.594;23.414;2022-09-21T06:17:38;94681.44;;;9.32;76.94
42705;BME280;28342;42.594;23.414;2022-09-21T06:20:05;94680.66;;;9.31;76.83
42705;BME280;28342;42.594;23.414;2022-09-21T06:22:31;94678.09;;;9.40;76.59
42705;BME280;28342;42.594;23.414;2022-09-21T06:24:57;94651.81;;;9.29;75.67
42705;BME280;28342;42.594;23.414;2022-09-21T06:27:30;94689.78;;;9.66;77.02
42705;BME280;28342;42.594;23.414;2022-09-21T06:29:55;94676.53;;;9.66;76.45
42705;BME280;28342;42.594;23.414;2022-09-21T06:32:21;94687.47;;;9.87;75.93
42705;BME280;28342;42.594;23.414;2022-09-21T06:34:54;94680.19;;;9.93;73.70
42705;BME280;28342;42.594;23.414;2022-09-21T06:37:23;94693.72;;;10.05;72.78
42705;BME280;28342;42.594;23.414;2022-09-21T06:39:48;94697.84;;;10.11;73.13
42705;BME280;28342;42.594;23.414;2022-09-21T06:42:14;94694.69;;;10.09;72.66
42705;BME280;28342;42.594;23.414;2022-09-21T06:44:40;94672.63;;;10.00;72.46
42705;BME280;28342;42.594;23.414;2022-09-21T06:47:08;94696.03;;;10.20;71.45
42705;BME280;28342;42.594;23.414;2022-09-21T06:49:34;94702.72;;;10.31;72.17
42705;BME280;28342;42.594;23.414;2022-09-21T06:52:00;94683.47;;;10.26;71.57
42705;BME280;28342;42.594;23.414;2022-09-21T06:54:25;94699.72;;;10.46;71.47
42705;BME280;28342;42.594;23.414;2022-09-21T06:56:51;94709.72;;;10.50;71.19
42705;BME280;28342;42.594;23.414;2022-09-21T06:59:16;94704.75;;;10.57;72.18
42705;BME280;28342;42.594;23.414;2022-09-21T07:01:41;94707.03;;;10.72;72.04
42705;BME280;28342;42.594;23.414;2022-09-21T07:04:08;94699.59;;;10.74;72.25
42705;BME280;28342;42.594;23.414;2022-09-21T07:06:34;94694.31;;;10.83;71.50
42705;BME280;28342;42.594;23.414;2022-09-21T07:08:59;94708.13;;;10.93;71.05
42705;BME280;28342;42.594;23.414;2022-09-21T07:11:27;94698.53;;;11.06;71.03
42705;BME280;28342;42.594;23.414;2022-09-21T07:13:52;94692.91;;;11.07;71.05
42705;BME280;28342;42.594;23.414;2022-09-21T07:16:18;94702.03;;;11.24;71.48
42705;BME280;28342;42.594;23.414;2022-09-21T07:18:45;94697.06;;;11.31;69.83
42705;BME280;28342;42.594;23.414;2022-09-21T07:21:15;94688.97;;;11.36;69.39
42705;BME280;28342;42.594;23.414;2022-09-21T07:23:40;94692.00;;;11.60;69.17
42705;BME280;28342;42.594;23.414;2022-09-21T07:26:09;94679.28;;;11.80;68.86
42705;BME280;28342;42.594;23.414;2022-09-21T07:28:35;94687.28;;;11.97;68.04
42705;BME280;28342;42.594;23.414;2022-09-21T07:31:06;94677.59;;;12.10;67.53
42705;BME280;28342;42.594;23.414;2022-09-21T07:33:33;94692.00;;;12.17;65.50
42705;BME280;28342;42.594;23.414;2022-09-21T07:36:00;94693.25;;;12.29;65.83
42705;BME280;28342;42.594;23.414;2022-09-21T07:38:25;94691.53;;;12.33;64.51
42705;BME280;28342;42.594;23.414;2022-09-21T07:40:52;94699.03;;;12.39;63.85
42705;BME280;28342;42.594;23.414;2022-09-21T07:43:17;94691.06;;;12.48;64.54
42705;BME280;28342;42.594;23.414;2022-09-21T07:46:10;94694.19;;;12.50;64.12
42705;BME280;28342;42.594;23.414;2022-09-21T07:49:33;94676.97;;;12.21;63.50
42705;BME280;28342;42.594;23.414;2022-09-21T07:59:24;94680.25;;;12.53;63.92
42705;BME280;28342;42.594;23.414;2022-09-21T08:02:19;94693.88;;;12.60;63.80
42705;BME280;28342;42.594;23.414;2022-09-21T08:09:34;94684.47;;;12.71;63.78
42705;BME280;28342;42.594;23.414;2022-09-21T08:12:38;94684.47;;;12.54;63.68
42705;BME280;28342;42.594;23.414;2022-09-21T08:18:51;94669.63;;;12.44;61.22
42705;BME280;28342;42.594;23.414;2022-09-21T08:21:19;94690.72;;;12.75;61.69
42705;BME280;28342;42.594;23.414;2022-09-21T08:27:20;94685.06;;;12.85;61.16
42705;BME280;28342;42.594;23.414;2022-09-21T08:30:10;94676.63;;;12.83;60.88
42705;BME280;28342;42.594;23.414;2022-09-21T08:33:17;94660.94;;;12.91;60.05
42705;BME280;28342;42.594;23.414;2022-09-21T08:37:00;94672.34;;;13.08;60.13
42705;BME280;28342;42.594;23.414;2022-09-21T08:47:14;94673.38;;;13.16;60.96
42705;BME280;28342;42.594;23.414;2022-09-21T08:50:35;94657.13;;;13.09;60.73
42705;BME280;28342;42.594;23.414;2022-09-21T09:28:47;94647.88;;;14.03;57.59
42705;BME280;28342;42.594;23.414;2022-09-21T10:57:59;94554.81;;;14.89;51.11
42705;BME280;28342;42.594;23.414;2022-09-21T12:22:29;94584.75;;;14.49;49.91
42705;BME280;28342;42.594;23.414;2022-09-21T12:26:24;94595.56;;;14.32;50.70
42705;BME280;28342;42.594;23.414;2022-09-21T13:51:14;94535.44;;;14.80;51.92
42705;BME280;28342;42.594;23.414;2022-09-21T13:54:34;94557.50;;;15.01;51.34
42705;BME280;28342;42.594;23.414;2022-09-21T13:58:00;94567.72;;;14.87;50.51
42705;BME280;28342;42.594;23.414;2022-09-21T16:22:43;94575.13;;;12.85;59.98
42705;BME280;28342;42.594;23.414;2022-09-21T16:26:16;94575.31;;;12.89;61.01
42705;BME280;28342;42.594;23.414;2022-09-21T16:30:01;94601.41;;;12.95;61.40
42705;BME280;28342;42.594;23.414;2022-09-21T16:33:39;94610.38;;;12.91;62.29
42705;BME280;28342;42.594;23.414;2022-09-21T16:40:17;94603.63;;;12.93;62.90
42705;BME280;28342;42.594;23.414;2022-09-21T16:43:15;94585.19;;;12.79;63.03
42705;BME280;28342;42.594;23.414;2022-09-21T16:46:25;94589.72;;;12.79;62.83
42705;BME280;28342;42.594;23.414;2022-09-21T16:53:14;94594.19;;;12.49;63.99
42705;BME280;28342;42.594;23.414;2022-09-21T17:00:07;94611.28;;;12.31;64.94
42705;BME280;28342;42.594;23.414;2022-09-21T17:06:33;94644.91;;;12.26;65.28
42705;BME280;28342;42.594;23.414;2022-09-21T17:09:25;94627.25;;;12.13;65.58
42705;BME280;28342;42.594;23.414;2022-09-21T17:12:37;94631.59;;;12.09;65.87
42705;BME280;28342;42.594;23.414;2022-09-21T17:16:19;94625.34;;;12.05;65.82
42705;BME280;28342;42.594;23.414;2022-09-21T17:19:52;94653.84;;;12.13;65.35
42705;BME280;28342;42.594;23.414;2022-09-21T17:23:15;94641.31;;;12.05;65.80
42705;BME280;28342;42.594;23.414;2022-09-21T17:29:58;94653.50;;;11.98;64.82
42705;BME280;28342;42.594;23.414;2022-09-21T17:33:29;94679.47;;;12.09;64.81
42705;BME280;28342;42.594;23.414;2022-09-21T17:36:49;94642.56;;;11.82;65.19
42705;BME280;28342;42.594;23.414;2022-09-21T17:47:18;94693.16;;;11.77;67.01
42705;BME280;28342;42.594;23.414;2022-09-21T17:50:31;94689.22;;;11.74;67.32
42705;BME280;28342;42.594;23.414;2022-09-21T17:53:51;94693.41;;;11.49;67.46
42705;BME280;28342;42.594;23.414;2022-09-21T17:59:08;94695.00;;;11.67;65.09
42705;BME280;28342;42.594;23.414;2022-09-21T18:01:42;94704.97;;;11.53;65.16
42705;BME280;28342;42.594;23.414;2022-09-21T18:04:29;94681.19;;;11.48;64.65
42705;BME280;28342;42.594;23.414;2022-09-21T18:07:22;94696.41;;;11.65;64.06
42705;BME280;28342;42.594;23.414;2022-09-21T18:09:54;94699.09;;;11.74;63.71
42705;BME280;28342;42.594;23.414;2022-09-21T18:15:26;94695.28;;;11.49;64.58
42705;BME280;28342;42.594;23.414;2022-09-21T18:18:17;94696.38;;;11.56;63.91
42705;BME280;28342;42.594;23.414;2022-09-21T18:21:28;94713.94;;;11.66;63.29
42705;BME280;28342;42.594;23.414;2022-09-21T18:24:29;94725.66;;;11.74;61.97
42705;BME280;28342;42.594;23.414;2022-09-21T18:44:35;94720.44;;;11.60;62.78
42705;BME280;28342;42.594;23.414;2022-09-21T18:55:53;94691.47;;;11.41;63.48
42705;BME280;28342;42.594;23.414;2022-09-21T18:59:31;94693.03;;;11.33;64.15
42705;BME280;28342;42.594;23.414;2022-09-21T19:02:39;94734.34;;;11.57;64.53
42705;BME280;28342;42.594;23.414;2022-09-21T19:15:13;94734.38;;;11.26;65.96
42705;BME280;28342;42.594;23.414;2022-09-21T19:18:19;94730.53;;;11.10;66.82
42705;BME280;28342;42.594;23.414;2022-09-21T19:35:48;94703.78;;;10.97;66.37
42705;BME280;28342;42.594;23.414;2022-09-21T19:38:58;94718.00;;;11.01;66.57
42705;BME280;28342;42.594;23.414;2022-09-21T19:47:52;94718.22;;;11.14;67.28
42705;BME280;28342;42.594;23.414;2022-09-21T19:50:54;94714.16;;;11.16;66.83
42705;BME280;28342;42.594;23.414;2022-09-21T19:53:48;94714.69;;;11.18;67.49
42705;BME280;28342;42.594;23.414;2022-09-21T19:56:56;94717.88;;;11.06;67.77
42705;BME280;28342;42.594;23.414;2022-09-21T20:00:02;94715.94;;;10.98;67.75
42705;BME280;28342;42.594;23.414;2022-09-21T20:02:35;94720.00;;;10.96;67.54
42705;BME280;28342;42.594;23.414;2022-09-21T20:05:18;94717.72;;;11.03;67.09
42705;BME280;28342;42.594;23.414;2022-09-21T20:08:03;94705.94;;;10.95;67.72
42705;BME280;28342;42.594;23.414;2022-09-21T20:18:00;94685.16;;;10.89;68.48
42705;BME280;28342;42.594;23.414;2022-09-21T20:20:36;94727.44;;;11.16;68.91
42705;BME280;28342;42.594;23.414;2022-09-21T20:23:14;94692.97;;;10.94;69.13
42705;BME280;28342;42.594;23.414;2022-09-21T20:25:58;94725.88;;;11.15;68.57
42705;BME280;28342;42.594;23.414;2022-09-21T20:28:36;94695.94;;;10.92;68.09
42705;BME280;28342;42.594;23.414;2022-09-21T20:31:30;94714.88;;;10.99;68.48
42705;BME280;28342;42.594;23.414;2022-09-21T20:34:24;94700.41;;;11.05;68.38
42705;BME280;28342;42.594;23.414;2022-09-21T20:37:22;94689.25;;;10.95;68.45
42705;BME280;28342;42.594;23.414;2022-09-21T20:40:13;94724.00;;;11.16;68.51
42705;BME280;28342;42.594;23.414;2022-09-21T20:47:07;94715.91;;;10.90;68.95
42705;BME280;28342;42.594;23.414;2022-09-21T20:49:50;94722.59;;;10.87;68.43
42705;BME280;28342;42.594;23.414;2022-09-21T21:03:53;94736.69;;;11.19;68.80
42705;BME280;28342;42.594;23.414;2022-09-21T21:10:42;94731.78;;;11.03;68.77
42705;BME280;28342;42.594;23.414;2022-09-21T21:13:38;94713.69;;;10.83;68.61
42705;BME280;28342;42.594;23.414;2022-09-21T21:16:33;94699.69;;;10.69;69.41
42705;BME280;28342;42.594;23.414;2022-09-21T21:22:36;94692.09;;;10.76;68.45
42705;BME280;28342;42.594;23.414;2022-09-21T21:29:14;94689.22;;;10.64;69.21
42705;BME280;28342;42.594;23.414;2022-09-21T21:32:11;94722.13;;;10.85;68.62
42705;BME280;28342;42.594;23.414;2022-09-21T21:35:04;94704.63;;;10.84;68.27
42705;BME280;28342;42.594;23.414;2022-09-21T21:38:04;94741.94;;;11.10;68.59
42705;BME280;28342;42.594;23.414;2022-09-21T21:48:20;94689.38;;;10.67;69.53
42705;BME280;28342;42.594;23.414;2022-09-21T21:51:36;94706.66;;;10.87;68.61
42705;BME280;28342;42.594;23.414;2022-09-21T22:01:19;94695.25;;;10.78;69.49
42705;BME280;28342;42.594;23.414;2022-09-21T22:04:06;94707.19;;;10.89;70.08
42705;BME280;28342;42.594;23.414;2022-09-21T22:10:32;94730.56;;;10.87;70.70
42705;BME280;28342;42.594;23.414;2022-09-21T22:20:45;94729.28;;;10.85;70.69
42705;BME280;28342;42.594;23.414;2022-09-21T22:27:30;94676.56;;;10.61;70.28
42705;BME280;28342;42.594;23.414;2022-09-21T22:50:29;94699.09;;;10.50;70.14
42705;BME280;28342;42.594;23.414;2022-09-21T22:53:50;94735.09;;;10.64;71.29
42705;BME280;28342;42.594;23.414;2022-09-21T23:26:11;94748.53;;;10.45;73.04
42705;BME280;28342;42.594;23.414;2022-09-21T23:32:52;94699.63;;;10.02;73.13
42705;BME280;28342;42.594;23.414;2022-09-21T23:52:05;94683.38;;;10.17;71.29
42705;BME280;28342;42.594;23.414;2022-09-21T23:58:57;94679.63;;;10.18;71.16
